createdAt,value
2018-12-08T00:00:10.538Z,9.00
2018-12-08T00:02:36.542Z,8.90
2018-12-08T00:05:02.546Z,8.80
2018-12-08T00:07:28.517Z,8.90
2018-12-08T00:09:54.515Z,8.80
2018-12-08T00:12:20.514Z,9.00
2018-12-08T00:14:46.519Z,8.90
2018-12-08T00:17:12.535Z,9.00
2018-12-08T00:19:38.513Z,9.00
2018-12-08T00:22:04.486Z,9.10
2018-12-08T00:24:30.493Z,9.20
2018-12-08T00:27:03.487Z,9.20
2018-12-08T00:29:30.225Z,8.90
2018-12-08T00:31:56.970Z,9.00
2018-12-08T00:34:22.987Z,9.00
2018-12-08T00:36:49.753Z,8.80
2018-12-08T00:39:15.759Z,8.80
2018-12-08T00:41:42.514Z,8.70
2018-12-08T00:44:08.509Z,8.70
2018-12-08T00:46:34.493Z,8.70
2018-12-08T00:49:00.523Z,8.60
2018-12-08T00:51:26.538Z,8.60
2018-12-08T00:53:52.530Z,8.60
2018-12-08T00:56:18.590Z,8.50
2018-12-08T00:58:44.583Z,8.50
2018-12-08T01:01:10.590Z,8.40
2018-12-08T01:03:36.591Z,8.40
2018-12-08T01:06:02.610Z,8.30
2018-12-08T01:08:28.587Z,8.40
2018-12-08T01:10:54.597Z,8.40
2018-12-08T01:13:20.603Z,8.40
2018-12-08T01:15:47.351Z,8.30
2018-12-08T01:18:13.347Z,8.20
2018-12-08T01:20:39.345Z,8.30
2018-12-08T01:23:05.355Z,8.30
2018-12-08T01:25:31.330Z,8.30
2018-12-08T01:27:57.346Z,8.30
2018-12-08T01:30:23.340Z,8.20
2018-12-08T01:32:49.326Z,8.30
2018-12-08T01:35:16.521Z,8.30
2018-12-08T01:37:42.517Z,8.40
2018-12-08T01:40:08.490Z,8.40
2018-12-08T01:42:34.483Z,8.40
2018-12-08T01:45:00.482Z,8.50
2018-12-08T01:47:26.497Z,8.50
2018-12-08T01:49:52.500Z,8.60
2018-12-08T01:52:19.228Z,8.30
2018-12-08T01:54:45.239Z,8.20
2018-12-08T01:57:11.238Z,8.20
2018-12-08T01:59:37.230Z,8.20
2018-12-08T02:02:03.270Z,8.20
2018-12-08T02:04:29.250Z,8.20
2018-12-08T02:06:55.246Z,8.10
2018-12-08T02:09:21.246Z,8.10
2018-12-08T02:11:47.230Z,8.10
2018-12-08T02:14:13.254Z,8.10
2018-12-08T02:16:39.990Z,8.20
2018-12-08T02:19:06.713Z,8.10
2018-12-08T02:21:32.711Z,8.00
2018-12-08T02:23:58.718Z,8.10
2018-12-08T02:26:24.723Z,8.20
2018-12-08T02:28:50.715Z,8.10
2018-12-08T02:31:16.714Z,8.10
2018-12-08T02:33:42.709Z,8.00
2018-12-08T02:36:08.712Z,8.00
2018-12-08T02:38:34.699Z,8.10
2018-12-08T02:41:00.693Z,8.10
2018-12-08T02:43:26.702Z,8.00
2018-12-08T02:45:52.685Z,8.00
2018-12-08T02:48:18.663Z,8.10
2018-12-08T02:50:44.649Z,8.10
2018-12-08T02:53:10.654Z,8.10
2018-12-08T02:55:37.381Z,8.10
2018-12-08T02:58:03.390Z,8.10
2018-12-08T03:00:29.388Z,8.10
2018-12-08T03:02:55.402Z,8.10
2018-12-08T03:05:21.391Z,8.10
2018-12-08T03:07:48.121Z,8.20
2018-12-08T03:10:14.858Z,8.20
2018-12-08T03:12:41.601Z,8.20
2018-12-08T03:15:07.658Z,8.20
2018-12-08T03:17:33.647Z,8.20
2018-12-08T03:20:00.382Z,8.10
2018-12-08T03:22:26.386Z,8.10
2018-12-08T03:24:52.438Z,8.20
2018-12-08T03:27:19.267Z,7.90
2018-12-08T03:29:45.242Z,7.90
2018-12-08T03:32:11.259Z,7.90
2018-12-08T03:34:37.258Z,7.90
2018-12-08T03:37:04.025Z,8.00
2018-12-08T03:39:30.028Z,8.00
2018-12-08T03:41:56.036Z,8.00
2018-12-08T03:44:22.050Z,8.10
2018-12-08T03:46:48.049Z,8.00
2018-12-08T03:49:14.057Z,8.10
2018-12-08T03:51:40.060Z,8.10
2018-12-08T03:54:06.071Z,8.00
2018-12-08T03:56:32.075Z,8.00
2018-12-08T03:58:58.839Z,7.80
2018-12-08T04:01:24.827Z,7.80
2018-12-08T04:03:50.853Z,7.80
2018-12-08T04:06:16.838Z,7.70
2018-12-08T04:08:42.875Z,7.90
2018-12-08T04:11:08.870Z,7.70
2018-12-08T04:13:34.984Z,7.60
2018-12-08T04:16:00.903Z,7.70
2018-12-08T04:18:26.922Z,7.60
2018-12-08T04:20:53.666Z,7.60
2018-12-08T04:23:19.705Z,7.60
2018-12-08T04:25:45.673Z,7.60
2018-12-08T04:28:11.683Z,7.80
2018-12-08T04:30:37.677Z,7.80
2018-12-08T04:33:03.699Z,7.80
2018-12-08T04:35:29.707Z,7.90
2018-12-08T04:37:55.743Z,7.80
2018-12-08T04:40:21.754Z,7.90
2018-12-08T04:42:47.779Z,7.90
2018-12-08T04:45:13.798Z,7.90
2018-12-08T04:47:39.771Z,7.90
2018-12-08T04:50:05.756Z,7.90
2018-12-08T04:52:31.753Z,7.90
2018-12-08T04:54:58.558Z,7.90
2018-12-08T04:57:39.514Z,7.90
2018-12-08T05:00:05.528Z,7.80
2018-12-08T05:02:31.515Z,7.90
2018-12-08T05:04:57.507Z,7.90
2018-12-08T05:07:23.508Z,7.90
2018-12-08T05:09:49.505Z,7.80
2018-12-08T05:12:16.258Z,8.00
2018-12-08T05:14:42.290Z,7.90
2018-12-08T05:17:08.318Z,7.90
2018-12-08T05:19:34.335Z,7.90
2018-12-08T05:22:00.326Z,7.80
2018-12-08T05:24:27.049Z,7.80
2018-12-08T05:26:53.091Z,7.70
2018-12-08T05:29:19.857Z,7.90
2018-12-08T05:31:45.870Z,7.80
2018-12-08T05:34:11.894Z,7.90
2018-12-08T05:36:37.887Z,8.00
2018-12-08T05:39:03.930Z,8.00
2018-12-08T05:41:30.696Z,8.00
2018-12-08T05:43:56.679Z,8.00
2018-12-08T05:46:22.773Z,7.90
2018-12-08T05:48:48.759Z,7.90
2018-12-08T05:51:14.759Z,7.70
2018-12-08T05:53:40.759Z,7.80
2018-12-08T05:56:06.775Z,7.80
2018-12-08T05:58:32.774Z,7.90
2018-12-08T06:00:58.794Z,7.90
2018-12-08T06:03:24.810Z,7.80
2018-12-08T06:05:50.794Z,7.90
2018-12-08T06:08:16.791Z,7.90
2018-12-08T06:10:42.794Z,7.90
2018-12-08T06:13:08.799Z,7.90
2018-12-08T06:15:34.786Z,7.90
2018-12-08T06:18:00.818Z,7.90
2018-12-08T06:20:26.819Z,8.00
2018-12-08T06:22:52.802Z,7.90
2018-12-08T06:25:18.853Z,8.00
2018-12-08T06:27:44.836Z,7.90
2018-12-08T06:30:10.810Z,7.90
2018-12-08T06:32:36.810Z,7.80
2018-12-08T06:35:02.810Z,8.00
2018-12-08T06:37:28.814Z,8.10
2018-12-08T06:39:55.536Z,8.10
2018-12-08T06:42:21.566Z,8.10
2018-12-08T06:44:47.654Z,8.10
2018-12-08T06:47:13.668Z,8.10
2018-12-08T06:49:39.694Z,8.10
2018-12-08T06:52:05.713Z,8.10
2018-12-08T06:54:31.706Z,7.90
2018-12-08T06:56:57.714Z,8.20
2018-12-08T06:59:23.702Z,8.10
2018-12-08T07:01:49.720Z,8.10
2018-12-08T07:04:15.730Z,8.10
2018-12-08T07:06:41.742Z,8.10
2018-12-08T07:09:07.751Z,8.20
2018-12-08T07:11:33.850Z,8.20
2018-12-08T07:13:59.799Z,8.10
2018-12-08T07:16:25.848Z,8.00
2018-12-08T07:18:52.269Z,8.10
2018-12-08T07:21:18.262Z,8.10
2018-12-08T07:23:45.027Z,8.10
2018-12-08T07:26:11.029Z,8.10
2018-12-08T07:28:37.767Z,8.10
2018-12-08T07:31:04.521Z,8.20
2018-12-08T07:33:30.642Z,8.20
2018-12-08T07:35:57.390Z,8.10
2018-12-08T07:38:23.410Z,8.10
2018-12-08T07:40:49.410Z,8.10
2018-12-08T07:43:15.430Z,8.20
2018-12-08T07:45:41.454Z,8.10
2018-12-08T07:48:07.512Z,8.00
2018-12-08T07:50:33.558Z,8.10
2018-12-08T07:52:59.551Z,8.00
2018-12-08T07:55:25.569Z,8.00
2018-12-08T07:57:52.327Z,8.00
2018-12-08T08:00:18.422Z,8.00
2018-12-08T08:02:45.171Z,8.10
2018-12-08T08:05:11.931Z,8.00
2018-12-08T08:07:37.939Z,8.00
2018-12-08T08:10:03.917Z,8.30
2018-12-08T08:12:30.277Z,8.20
2018-12-08T08:14:56.288Z,8.30
2018-12-08T08:17:22.283Z,8.20
2018-12-08T08:19:48.304Z,8.20
2018-12-08T08:22:14.418Z,8.30
2018-12-08T08:24:40.438Z,8.00
2018-12-08T08:27:06.458Z,8.10
2018-12-08T08:29:32.491Z,8.10
2018-12-08T08:31:58.602Z,8.10
2018-12-08T08:34:24.524Z,8.10
2018-12-08T08:36:50.546Z,8.10
2018-12-08T08:39:16.623Z,8.10
2018-12-08T08:41:43.299Z,8.30
2018-12-08T08:44:10.106Z,8.10
2018-12-08T08:46:36.134Z,8.10
2018-12-08T08:49:02.143Z,8.20
2018-12-08T08:51:28.152Z,8.30
2018-12-08T08:53:54.447Z,8.40
2018-12-08T08:56:20.479Z,8.40
2018-12-08T08:58:46.501Z,8.40
2018-12-08T09:01:12.521Z,8.20
2018-12-08T09:03:38.561Z,8.40
2018-12-08T09:06:04.563Z,8.30
2018-12-08T09:08:31.321Z,8.20
2018-12-08T09:10:57.315Z,8.20
2018-12-08T09:13:23.305Z,8.30
2018-12-08T09:15:49.957Z,8.10
2018-12-08T09:18:15.306Z,8.20
2018-12-08T09:20:41.547Z,8.10
2018-12-08T09:23:07.565Z,8.10
2018-12-08T09:25:33.565Z,8.20
2018-12-08T09:27:59.617Z,8.20
2018-12-08T09:30:25.602Z,8.30
2018-12-08T09:32:51.584Z,8.20
2018-12-08T09:35:17.592Z,8.30
2018-12-08T09:37:43.591Z,8.20
2018-12-08T09:40:09.649Z,8.10
2018-12-08T09:42:35.647Z,8.20
2018-12-08T09:45:01.678Z,8.20
2018-12-08T09:47:27.682Z,8.20
2018-12-08T09:49:53.706Z,8.40
2018-12-08T09:52:19.720Z,8.20
2018-12-08T09:54:47.534Z,8.10
2018-12-08T09:57:12.477Z,8.10
2018-12-08T09:59:39.221Z,8.00
2018-12-08T10:02:05.283Z,8.00
2018-12-08T10:04:31.326Z,8.10
2018-12-08T10:06:57.316Z,8.10
2018-12-08T10:09:24.067Z,8.00
2018-12-08T10:11:50.114Z,8.00
2018-12-08T10:14:16.113Z,8.10
2018-12-08T10:16:42.095Z,8.00
2018-12-08T10:19:08.114Z,8.10
2018-12-08T10:21:34.202Z,8.20
2018-12-08T10:24:00.215Z,7.90
2018-12-08T10:26:26.223Z,8.20
2018-12-08T10:28:52.964Z,8.30
2018-12-08T10:31:18.938Z,8.20
2018-12-08T10:33:44.930Z,8.30
2018-12-08T10:36:10.928Z,8.30
2018-12-08T10:38:37.687Z,8.40
2018-12-08T10:41:03.677Z,8.40
2018-12-08T10:43:30.494Z,8.40
2018-12-08T10:45:56.499Z,8.40
2018-12-08T10:48:22.497Z,8.40
2018-12-08T10:50:48.522Z,8.50
2018-12-08T10:53:14.539Z,8.50
2018-12-08T10:55:40.560Z,8.60
2018-12-08T10:58:06.551Z,8.60
2018-12-08T11:00:50.354Z,8.60
2018-12-08T11:03:28.573Z,8.60
2018-12-08T11:05:54.587Z,8.80
2018-12-08T11:08:20.564Z,8.90
2018-12-08T11:10:47.306Z,8.90
2018-12-08T11:13:14.037Z,8.90
2018-12-08T11:15:40.050Z,8.90
2018-12-08T11:18:06.054Z,8.90
2018-12-08T11:20:32.055Z,9.00
2018-12-08T11:22:58.051Z,9.00
2018-12-08T11:25:24.051Z,9.10
2018-12-08T11:27:50.053Z,8.90
2018-12-08T11:30:16.060Z,9.10
2018-12-08T11:32:42.094Z,9.20
2018-12-08T11:35:08.115Z,9.10
2018-12-08T11:37:34.122Z,9.10
2018-12-08T11:40:00.117Z,9.10
2018-12-08T11:42:26.143Z,9.10
2018-12-08T11:44:52.155Z,9.10
2018-12-08T11:47:18.902Z,9.20
2018-12-08T11:49:45.647Z,9.20
2018-12-08T11:52:11.664Z,9.20
2018-12-08T11:54:38.435Z,9.30
2018-12-08T11:57:04.477Z,9.30
2018-12-08T11:59:30.466Z,9.40
2018-12-08T12:01:56.471Z,9.30
2018-12-08T12:04:23.243Z,9.30
2018-12-08T12:06:49.256Z,9.30
2018-12-08T12:09:15.275Z,9.40
2018-12-08T12:11:41.489Z,9.30
2018-12-08T12:14:07.531Z,9.20
2018-12-08T12:16:33.566Z,9.20
2018-12-08T12:18:59.584Z,9.20
2018-12-08T12:21:25.661Z,9.20
2018-12-08T12:23:51.793Z,9.30
2018-12-08T12:26:17.803Z,9.30
2018-12-08T12:28:43.929Z,9.30
2018-12-08T12:31:09.991Z,9.20
2018-12-08T12:33:36.734Z,9.30
2018-12-08T12:36:03.509Z,9.30
2018-12-08T12:38:29.577Z,9.30
2018-12-08T12:40:56.553Z,9.30
2018-12-08T12:43:22.583Z,9.30
2018-12-08T12:45:48.582Z,9.40
2018-12-08T12:48:14.556Z,9.40
2018-12-08T12:50:40.642Z,9.50
2018-12-08T12:53:06.653Z,9.50
2018-12-08T12:55:33.432Z,9.70
2018-12-08T12:57:59.478Z,9.70
2018-12-08T13:00:25.570Z,9.70
2018-12-08T13:02:51.622Z,9.90
2018-12-08T13:05:17.635Z,10.00
2018-12-08T13:07:43.655Z,10.00
2018-12-08T13:10:09.684Z,10.10
2018-12-08T13:12:35.698Z,10.20
2018-12-08T13:15:01.708Z,10.30
2018-12-08T13:17:27.746Z,10.40
2018-12-08T13:19:53.738Z,10.40
2018-12-08T13:22:20.463Z,10.00
2018-12-08T13:24:46.498Z,10.00
2018-12-08T13:27:12.497Z,9.90
2018-12-08T13:29:38.530Z,9.80
2018-12-08T13:32:04.539Z,9.80
2018-12-08T13:34:30.686Z,9.60
2018-12-08T13:36:56.686Z,9.70
2018-12-08T13:39:22.682Z,9.50
2018-12-08T13:41:48.716Z,9.50
2018-12-08T13:44:24.038Z,9.40
2018-12-08T13:46:50.057Z,9.50
2018-12-08T13:49:16.097Z,9.70
2018-12-08T13:51:42.088Z,9.80
2018-12-08T13:54:08.967Z,9.60
2018-12-08T13:56:34.994Z,9.60
2018-12-08T13:59:00.979Z,9.60
2018-12-08T14:01:27.706Z,9.60
2018-12-08T14:03:54.466Z,9.50
2018-12-08T14:06:20.458Z,9.50
2018-12-08T14:08:46.450Z,9.60
2018-12-08T14:11:12.442Z,9.50
2018-12-08T14:13:38.478Z,9.40
2018-12-08T14:16:04.479Z,9.30
2018-12-08T14:18:30.503Z,9.20
2018-12-08T14:20:56.522Z,9.00
2018-12-08T14:23:22.563Z,9.10
2018-12-08T14:25:48.570Z,9.10
2018-12-08T14:28:15.327Z,9.10
2018-12-08T14:30:41.362Z,9.00
2018-12-08T14:33:07.355Z,9.10
2018-12-08T14:35:34.083Z,9.00
2018-12-08T14:38:00.838Z,9.10
2018-12-08T14:40:27.579Z,9.20
2018-12-08T14:42:54.330Z,9.20
2018-12-08T14:45:20.338Z,9.20
2018-12-08T14:47:47.117Z,9.20
2018-12-08T14:50:13.129Z,9.20
2018-12-08T14:52:39.131Z,9.20
2018-12-08T14:55:05.912Z,9.10
2018-12-08T14:57:31.906Z,9.10
2018-12-08T14:59:57.906Z,9.00
2018-12-08T15:02:24.709Z,9.10
2018-12-08T15:04:50.698Z,9.10
2018-12-08T15:07:17.434Z,9.00
2018-12-08T15:09:44.194Z,9.00
2018-12-08T15:12:10.235Z,9.00
2018-12-08T15:14:36.214Z,8.80
2018-12-08T15:17:02.956Z,8.80
2018-12-08T15:19:29.891Z,8.90
2018-12-08T15:22:05.879Z,8.90
2018-12-08T15:24:31.934Z,8.80
2018-12-08T15:26:57.943Z,8.90
2018-12-08T15:29:23.942Z,8.60
2018-12-08T15:31:50.699Z,8.70
2018-12-08T15:34:16.924Z,8.70
2018-12-08T15:36:43.025Z,8.70
2018-12-08T15:39:09.090Z,8.70
2018-12-08T15:41:35.102Z,8.80
2018-12-08T15:44:01.147Z,8.90
2018-12-08T15:46:27.144Z,8.90
2018-12-08T15:48:54.227Z,8.90
2018-12-08T15:51:20.522Z,9.00
2018-12-08T15:53:46.559Z,8.90
2018-12-08T15:56:12.549Z,8.90
2018-12-08T15:58:40.422Z,8.90
2018-12-08T16:01:06.443Z,8.80
2018-12-08T16:03:32.442Z,8.90
2018-12-08T16:05:59.213Z,8.80
2018-12-08T16:08:25.192Z,8.80
2018-12-08T16:10:51.178Z,8.80
2018-12-08T16:13:17.179Z,8.90
2018-12-08T16:15:43.931Z,8.70
2018-12-08T16:18:10.067Z,8.70
2018-12-08T16:20:36.078Z,8.80
2018-12-08T16:23:02.090Z,8.80
2018-12-08T16:25:28.827Z,8.70
2018-12-08T16:27:55.562Z,8.70
2018-12-08T16:30:21.698Z,8.60
2018-12-08T16:32:47.707Z,8.60
2018-12-08T16:35:13.750Z,8.60
2018-12-08T16:37:39.736Z,8.60
2018-12-08T16:40:05.727Z,8.70
2018-12-08T16:42:31.747Z,8.70
2018-12-08T16:44:57.799Z,8.60
2018-12-08T16:47:23.791Z,8.70
2018-12-08T16:49:49.866Z,8.60
2018-12-08T16:52:15.899Z,8.70
2018-12-08T16:54:41.912Z,8.80
2018-12-08T16:57:07.951Z,8.80
2018-12-08T16:59:33.950Z,8.90
2018-12-08T17:01:59.951Z,8.90
2018-12-08T17:04:25.989Z,9.10
2018-12-08T17:06:52.003Z,8.90
2018-12-08T17:09:18.770Z,9.00
2018-12-08T17:11:44.751Z,9.00
2018-12-08T17:14:10.759Z,9.10
2018-12-08T17:16:36.746Z,9.10
2018-12-08T17:19:02.713Z,9.10
2018-12-08T17:21:28.710Z,9.20
2018-12-08T17:23:54.694Z,9.20
2018-12-08T17:26:20.683Z,9.10
2018-12-08T17:28:46.702Z,9.00
2018-12-08T17:31:12.688Z,9.10
2018-12-08T17:33:38.699Z,9.20
2018-12-08T17:36:04.673Z,9.20
2018-12-08T17:38:30.650Z,9.10
2018-12-08T17:40:56.646Z,9.30
2018-12-08T17:43:22.613Z,9.30
2018-12-08T17:45:48.592Z,9.20
2018-12-08T17:48:14.590Z,9.20
2018-12-08T17:50:40.586Z,9.20
2018-12-08T17:53:06.561Z,9.20
2018-12-08T17:55:32.571Z,9.10
2018-12-08T17:57:58.575Z,9.20
2018-12-08T18:00:24.908Z,9.20
2018-12-08T18:02:50.899Z,9.10
2018-12-08T18:05:16.874Z,9.10
2018-12-08T18:07:42.875Z,9.30
2018-12-08T18:10:08.850Z,9.10
2018-12-08T18:12:34.828Z,9.30
2018-12-08T18:15:00.811Z,9.30
2018-12-08T18:17:26.798Z,9.30
2018-12-08T18:19:52.811Z,9.30
2018-12-08T18:22:18.914Z,9.20
2018-12-08T18:24:44.833Z,9.30
2018-12-08T18:27:10.841Z,9.30
2018-12-08T18:29:36.832Z,9.40
2018-12-08T18:32:02.819Z,9.30
2018-12-08T18:34:28.850Z,9.30
2018-12-08T18:36:54.847Z,9.30
2018-12-08T18:39:20.859Z,9.40
2018-12-08T18:41:46.834Z,9.40
2018-12-08T18:44:12.847Z,9.40
2018-12-08T18:46:38.885Z,9.40
2018-12-08T18:49:04.862Z,9.40
2018-12-08T18:51:31.126Z,9.50
2018-12-08T18:53:57.190Z,9.40
2018-12-08T18:56:23.512Z,9.40
2018-12-08T18:58:49.803Z,9.30
2018-12-08T19:01:26.435Z,9.30
2018-12-08T19:03:53.805Z,9.10
2018-12-08T19:06:20.202Z,9.10
2018-12-08T19:08:46.320Z,9.00
2018-12-08T19:11:12.339Z,9.10
2018-12-08T19:13:38.344Z,9.10
2018-12-08T19:16:05.104Z,9.20
2018-12-08T19:18:31.163Z,9.20
2018-12-08T19:20:57.174Z,9.20
2018-12-08T19:23:23.162Z,9.20
2018-12-08T19:25:49.911Z,9.30
2018-12-08T19:28:15.937Z,9.20
2018-12-08T19:30:41.939Z,9.30
2018-12-08T19:33:14.491Z,9.10
2018-12-08T19:35:34.716Z,9.10
2018-12-08T19:38:00.719Z,9.10
2018-12-08T19:40:27.451Z,9.00
2018-12-08T19:42:53.537Z,9.00
2018-12-08T19:45:19.499Z,8.90
2018-12-08T19:47:45.522Z,9.00
2018-12-08T19:50:11.499Z,9.10
2018-12-08T19:52:37.534Z,9.10
2018-12-08T19:55:03.567Z,9.00
2018-12-08T19:57:29.562Z,9.10
2018-12-08T19:59:55.571Z,8.90
2018-12-08T20:02:21.620Z,9.00
2018-12-08T20:04:47.623Z,9.00
2018-12-08T20:07:13.615Z,9.00
2018-12-08T20:09:39.614Z,8.90
2018-12-08T20:12:05.594Z,8.90
2018-12-08T20:14:31.587Z,8.90
2018-12-08T20:16:57.660Z,8.80
2018-12-08T20:19:23.679Z,8.90
2018-12-08T20:21:49.682Z,8.90
2018-12-08T20:24:15.671Z,8.80
2018-12-08T20:26:41.675Z,8.70
2018-12-08T20:29:07.675Z,8.70
2018-12-08T20:31:33.685Z,8.80
2018-12-08T20:33:59.700Z,8.70
2018-12-08T20:36:25.699Z,8.80
2018-12-08T20:38:51.702Z,8.80
2018-12-08T20:41:17.766Z,8.80
2018-12-08T20:43:43.786Z,8.80
2018-12-08T20:46:09.786Z,8.80
2018-12-08T20:48:35.775Z,8.70
2018-12-08T20:51:01.807Z,8.80
2018-12-08T20:53:27.819Z,8.90
2018-12-08T20:55:53.802Z,8.80
2018-12-08T20:58:19.966Z,8.90
2018-12-08T21:00:45.901Z,8.90
2018-12-08T21:03:11.891Z,8.80
2018-12-08T21:05:37.887Z,8.90
2018-12-08T21:08:03.902Z,9.00
2018-12-08T21:10:29.911Z,9.10
2018-12-08T21:12:55.899Z,9.00
2018-12-08T21:15:21.875Z,9.00
2018-12-08T21:17:47.867Z,9.10
2018-12-08T21:20:13.859Z,9.10
2018-12-08T21:22:39.846Z,9.00
2018-12-08T21:25:05.883Z,8.90
2018-12-08T21:27:31.863Z,9.00
2018-12-08T21:29:57.953Z,8.90
2018-12-08T21:32:23.935Z,8.90
2018-12-08T21:34:49.934Z,9.00
2018-12-08T21:37:15.935Z,9.00
2018-12-08T21:39:41.911Z,9.10
2018-12-08T21:42:07.914Z,9.10
2018-12-08T21:44:33.913Z,9.10
2018-12-08T21:46:59.894Z,9.10
2018-12-08T21:49:25.900Z,9.10
2018-12-08T21:51:51.942Z,9.10
2018-12-08T21:54:17.978Z,9.00
2018-12-08T21:56:43.994Z,8.90
2018-12-08T21:59:09.990Z,8.90
2018-12-08T22:01:36.233Z,8.90
2018-12-08T22:04:02.282Z,8.90
2018-12-08T22:06:28.323Z,9.00
2018-12-08T22:08:54.310Z,8.90
2018-12-08T22:11:20.386Z,8.90
2018-12-08T22:13:46.498Z,8.90
2018-12-08T22:16:12.664Z,9.00
2018-12-08T22:18:38.659Z,9.10
2018-12-08T22:21:04.651Z,9.10
2018-12-08T22:23:30.618Z,8.90
2018-12-08T22:25:56.791Z,8.90
2018-12-08T22:28:22.790Z,9.00
2018-12-08T22:30:48.784Z,8.90
2018-12-08T22:33:14.772Z,8.90
2018-12-08T22:35:40.787Z,8.90
2018-12-08T22:38:06.809Z,8.90
2018-12-08T22:40:32.793Z,9.00
2018-12-08T22:42:58.774Z,9.00
2018-12-08T22:45:24.929Z,9.00
2018-12-08T22:47:50.931Z,9.00
2018-12-08T22:50:16.930Z,9.10
2018-12-08T22:52:42.916Z,9.00
2018-12-08T22:55:08.912Z,9.10
2018-12-08T22:57:34.900Z,9.10
2018-12-08T23:00:00.926Z,9.20
2018-12-08T23:02:26.926Z,9.10
2018-12-08T23:04:52.905Z,9.10
2018-12-08T23:07:18.911Z,9.10
2018-12-08T23:09:44.907Z,9.20
2018-12-08T23:12:11.653Z,9.10
2018-12-08T23:14:37.654Z,9.10
2018-12-08T23:17:03.967Z,9.20
2018-12-08T23:19:29.950Z,9.20
2018-12-08T23:21:55.931Z,9.20
2018-12-08T23:24:21.927Z,9.30
2018-12-08T23:26:47.914Z,9.40
2018-12-08T23:29:13.907Z,9.30
2018-12-08T23:31:40.630Z,9.30
2018-12-08T23:34:06.634Z,9.20
2018-12-08T23:36:32.627Z,9.20
2018-12-08T23:38:58.615Z,9.30
2018-12-08T23:41:24.611Z,9.20
2018-12-08T23:43:50.607Z,9.30
2018-12-08T23:46:16.601Z,9.30
2018-12-08T23:48:43.315Z,9.30
2018-12-08T23:51:09.293Z,9.30
2018-12-08T23:53:35.293Z,9.40
2018-12-08T23:56:02.022Z,9.50
2018-12-08T23:58:28.772Z,9.50
